Portada
METAR-TAF:

METAR-TAF

Aeroports :

Kingston, Jamaica

latitud: 17-56N, longitud: 076-47W, altitud: 3 m

Observació

L'informe es va fer fa 29 minuts, a les 14:00 UTC
Vent 5 kt del Oest/Nord-Oest
Temperatura 29°C
Humitat 70%
Pressió 1015 hPa
Visibilitat 10 km o més
Escasses núvols a una alçada de 2200 ft

METAR: MKJP 261400Z 30005KT 9999 FEW022 29/23 Q1015

Hora: 09:29 (14:29 UTC)

Pronòstic

L'informe es va fer fa 3 hores i 14 minuts, a les 11:15 UTC
Pronòstic vàlid del 26 a les 12 UTC al 27 a les 12 UTC
Vent 5 kt del Nord/Nord-Oest
Visibilitat 10 km o més
Escasses núvols a una alçada de 2200 ft
Evolucionant progressivament
l' 26 a les 13 UTC al 26 a les 15 UTC
Vent 10 kt del Sud
Núvols disperses a una alçada de 3400 ft
Evolucionant progressivament
l' 27 a les 01 UTC al 27 a les 03 UTC
Vent 5 kt del Nord

TAF: MKJP 261115Z 2612/2712 34005KT 9999 FEW022 BECMG 2613/2615 18010KT SCT034 BECMG 2701/2703 35005KT

Observacions i pronòstics meteorològics de més de 4000 aeroports (METAR i TAF).

Les estacions disponibles són els punts grocs i vermells al mapa.

Posi el ratolí al punt desitjat per veure el nom de l'estació.

Feu clic per veure les observacions i els pronòstics meteorològics.

Per canviar el mapa: feu clic els botons verds amb una creu de color negre per apropar; al botó verd amb un guió per allunyar la imatge; o en les fletxes verdes per a mapes adjacents.


METAR-TAF: